createdAt,value
2019-05-11T00:00:46.981Z,87.06
2019-05-11T00:03:14.249Z,87.23
2019-05-11T00:05:41.599Z,87.23
2019-05-11T00:08:08.829Z,87.16
2019-05-11T00:10:36.141Z,87.14
2019-05-11T00:13:05.439Z,87.09
2019-05-11T00:15:32.921Z,87.35
2019-05-11T00:18:00.310Z,86.95
2019-05-11T00:20:27.736Z,87.05
2019-05-11T00:22:55.025Z,86.99
2019-05-11T00:25:22.489Z,87.07
2019-05-11T00:27:49.822Z,87.20
2019-05-11T00:30:17.220Z,87.25
2019-05-11T00:32:44.638Z,86.89
2019-05-11T00:35:11.979Z,86.93
2019-05-11T00:37:39.548Z,86.92
2019-05-11T00:40:14.288Z,86.61
2019-05-11T00:42:38.284Z,86.93
2019-05-11T00:45:06.412Z,86.94
2019-05-11T00:47:33.943Z,87.05
2019-05-11T00:50:01.343Z,87.35
2019-05-11T00:52:28.779Z,87.38
2019-05-11T00:54:57.120Z,87.31
2019-05-11T00:57:24.547Z,87.32
2019-05-11T00:59:52.113Z,87.29
2019-05-11T01:02:19.568Z,87.33
2019-05-11T01:04:47.086Z,87.20
2019-05-11T01:07:14.364Z,87.22
2019-05-11T01:09:41.842Z,87.37
2019-05-11T01:12:09.297Z,87.22
2019-05-11T01:14:36.679Z,86.95
2019-05-11T01:17:03.975Z,86.73
2019-05-11T01:19:31.387Z,86.54
2019-05-11T01:21:58.691Z,86.21
2019-05-11T01:24:25.994Z,86.56
2019-05-11T01:26:53.336Z,86.99
2019-05-11T01:29:20.631Z,86.99
2019-05-11T01:31:47.932Z,87.07
2019-05-11T01:34:15.194Z,86.89
2019-05-11T01:36:42.547Z,86.71
2019-05-11T01:39:09.962Z,86.45
2019-05-11T01:41:37.197Z,86.25
2019-05-11T01:44:04.460Z,85.79
2019-05-11T01:46:31.730Z,86.05
2019-05-11T01:48:58.985Z,86.58
2019-05-11T01:51:26.266Z,86.81
2019-05-11T01:53:55.928Z,87.09
2019-05-11T01:56:24.128Z,87.13
2019-05-11T01:58:51.595Z,87.17
2019-05-11T02:01:18.976Z,87.30
2019-05-11T02:03:46.612Z,87.58
2019-05-11T02:06:13.923Z,87.93
2019-05-11T02:08:41.188Z,87.98
2019-05-11T02:11:16.012Z,88.08
2019-05-11T02:13:37.671Z,88.12
2019-05-11T02:16:04.943Z,88.11
2019-05-11T02:18:32.187Z,87.92
2019-05-11T02:21:00.555Z,87.87
2019-05-11T02:23:27.806Z,88.01
2019-05-11T02:25:55.091Z,88.01
2019-05-11T02:28:22.487Z,87.76
2019-05-11T02:30:49.792Z,87.76
2019-05-11T02:33:17.094Z,87.94
2019-05-11T02:35:44.406Z,88.05
2019-05-11T02:38:11.678Z,88.18
2019-05-11T02:40:39.757Z,88.23
2019-05-11T02:43:07.039Z,88.04
2019-05-11T02:45:41.454Z,87.45
2019-05-11T02:48:09.281Z,87.66
2019-05-11T02:50:37.114Z,87.93
2019-05-11T02:53:04.461Z,87.93
2019-05-11T02:55:32.338Z,87.71
2019-05-11T02:58:00.736Z,87.63
2019-05-11T03:00:36.524Z,87.97
2019-05-11T03:03:03.786Z,87.66
2019-05-11T03:05:31.010Z,87.80
2019-05-11T03:07:58.346Z,88.03
2019-05-11T03:10:25.726Z,88.09
2019-05-11T03:12:53.021Z,87.81
2019-05-11T03:15:20.445Z,87.43
2019-05-11T03:17:47.719Z,87.21
2019-05-11T03:20:15.069Z,87.30
2019-05-11T03:22:42.378Z,86.86
2019-05-11T03:25:09.677Z,86.88
2019-05-11T03:27:36.912Z,86.66
2019-05-11T03:30:04.685Z,87.08
2019-05-11T03:32:32.140Z,87.48
2019-05-11T03:34:59.599Z,87.78
2019-05-11T03:37:27.005Z,87.91
2019-05-11T03:39:54.312Z,87.74
2019-05-11T03:42:21.594Z,87.83
2019-05-11T03:44:48.882Z,87.77
2019-05-11T03:47:16.179Z,86.67
2019-05-11T03:49:43.454Z,86.36
2019-05-11T03:52:10.858Z,87.11
2019-05-11T03:54:38.145Z,87.44
2019-05-11T03:57:05.433Z,87.38
2019-05-11T03:59:32.778Z,86.99
2019-05-11T04:02:00.089Z,87.09
2019-05-11T04:04:27.340Z,87.44
2019-05-11T04:06:54.617Z,87.62
2019-05-11T04:09:22.077Z,87.57
2019-05-11T04:11:49.387Z,87.61
2019-05-11T04:14:16.852Z,87.76
2019-05-11T04:16:44.138Z,87.80
2019-05-11T04:19:11.587Z,87.58
2019-05-11T04:21:38.880Z,87.57
2019-05-11T04:24:06.278Z,87.94
2019-05-11T04:26:33.691Z,87.81
2019-05-11T04:29:02.046Z,88.05
2019-05-11T04:31:29.310Z,87.87
2019-05-11T04:33:56.615Z,88.08
2019-05-11T04:36:23.901Z,88.23
2019-05-11T04:38:51.221Z,87.95
2019-05-11T04:41:18.522Z,87.83
2019-05-11T04:43:45.789Z,87.51
2019-05-11T04:46:13.147Z,87.66
2019-05-11T04:48:40.506Z,87.65
2019-05-11T04:51:07.781Z,87.37
2019-05-11T04:53:35.080Z,87.59
2019-05-11T04:56:03.337Z,87.99
2019-05-11T04:58:31.894Z,88.26
2019-05-11T05:00:59.979Z,88.24
2019-05-11T05:03:40.332Z,88.11
2019-05-11T05:05:58.203Z,87.54
2019-05-11T05:08:28.692Z,86.17
2019-05-11T05:10:58.515Z,85.52
2019-05-11T05:13:29.283Z,85.79
2019-05-11T05:15:54.615Z,85.68
2019-05-11T05:18:22.094Z,85.49
2019-05-11T05:20:49.442Z,85.14
2019-05-11T05:23:16.911Z,85.24
2019-05-11T05:25:44.193Z,86.04
2019-05-11T05:28:11.482Z,86.01
2019-05-11T05:30:38.881Z,85.62
2019-05-11T05:33:06.181Z,84.44
2019-05-11T05:35:33.516Z,84.57
2019-05-11T05:38:00.805Z,83.49
2019-05-11T05:40:28.103Z,82.88
2019-05-11T05:42:55.393Z,82.03
2019-05-11T05:45:22.691Z,82.14
2019-05-11T05:47:50.023Z,81.91
2019-05-11T05:50:17.437Z,81.51
2019-05-11T05:52:44.797Z,80.48
2019-05-11T05:55:12.194Z,80.12
2019-05-11T05:57:39.620Z,79.45
2019-05-11T06:00:07.092Z,79.43
2019-05-11T06:02:34.439Z,79.08
2019-05-11T06:05:05.137Z,78.98
2019-05-11T06:07:34.337Z,77.43
2019-05-11T06:10:01.690Z,77.74
2019-05-11T06:12:29.453Z,78.02
2019-05-11T06:14:57.863Z,78.24
2019-05-11T06:17:25.190Z,77.57
2019-05-11T06:19:52.970Z,76.56
2019-05-11T06:22:21.686Z,76.76
2019-05-11T06:24:49.030Z,76.16
2019-05-11T06:27:16.489Z,75.19
2019-05-11T06:29:43.709Z,74.45
2019-05-11T06:32:11.003Z,75.26
2019-05-11T06:34:38.211Z,75.22
2019-05-11T06:37:06.625Z,74.96
2019-05-11T06:39:33.888Z,74.68
2019-05-11T06:42:01.156Z,75.24
2019-05-11T06:44:28.433Z,75.24
2019-05-11T06:46:55.768Z,75.17
2019-05-11T06:49:23.087Z,74.87
2019-05-11T06:51:50.440Z,74.54
2019-05-11T06:54:17.759Z,75.13
2019-05-11T06:56:45.031Z,75.41
2019-05-11T06:59:12.316Z,75.55
2019-05-11T07:01:39.576Z,76.04
2019-05-11T07:04:06.876Z,76.57
2019-05-11T07:06:34.312Z,75.32
2019-05-11T07:09:01.612Z,75.60
2019-05-11T07:11:29.241Z,75.22
2019-05-11T07:13:56.589Z,74.57
2019-05-11T07:16:23.923Z,75.45
2019-05-11T07:18:51.181Z,74.08
2019-05-11T07:21:18.445Z,73.83
2019-05-11T07:23:45.804Z,72.73
2019-05-11T07:26:13.056Z,71.82
2019-05-11T07:28:40.367Z,71.30
2019-05-11T07:31:07.626Z,72.51
2019-05-11T07:33:34.957Z,71.40
2019-05-11T07:36:02.307Z,70.08
2019-05-11T07:38:29.619Z,70.70
2019-05-11T07:40:58.226Z,71.29
2019-05-11T07:43:25.729Z,70.91
2019-05-11T07:45:53.046Z,71.69
2019-05-11T07:48:20.625Z,71.58
2019-05-11T07:50:48.094Z,71.46
2019-05-11T07:53:15.426Z,72.70
2019-05-11T07:55:42.687Z,72.71
2019-05-11T07:58:09.995Z,71.90
2019-05-11T08:00:39.802Z,71.41
2019-05-11T08:03:08.948Z,71.84
2019-05-11T08:05:38.377Z,71.29
2019-05-11T08:08:05.198Z,72.61
2019-05-11T08:10:32.440Z,72.42
2019-05-11T08:12:59.807Z,72.86
2019-05-11T08:15:28.409Z,72.48
2019-05-11T08:17:57.876Z,73.13
2019-05-11T08:20:28.070Z,72.96
2019-05-11T08:22:55.214Z,72.76
2019-05-11T08:25:22.571Z,73.77
2019-05-11T08:27:50.030Z,73.02
2019-05-11T08:30:18.796Z,73.10
2019-05-11T08:32:46.281Z,74.14
2019-05-11T08:35:13.909Z,72.51
2019-05-11T08:37:41.377Z,72.13
2019-05-11T08:40:09.382Z,72.74
2019-05-11T08:42:38.028Z,71.14
2019-05-11T08:45:19.545Z,69.82
2019-05-11T08:47:34.966Z,70.93
2019-05-11T08:50:02.276Z,69.81
2019-05-11T08:52:29.593Z,69.90
2019-05-11T08:54:57.758Z,69.45
2019-05-11T08:57:25.396Z,69.12
2019-05-11T08:59:52.678Z,70.12
2019-05-11T09:02:19.944Z,71.38
2019-05-11T09:04:48.355Z,71.79
2019-05-11T09:07:18.402Z,72.30
2019-05-11T09:09:48.214Z,72.17
2019-05-11T09:12:15.297Z,71.32
2019-05-11T09:14:42.626Z,69.91
2019-05-11T09:17:10.023Z,70.33
2019-05-11T09:19:38.761Z,70.55
2019-05-11T09:22:08.292Z,72.88
2019-05-11T09:24:35.706Z,71.77
2019-05-11T09:27:02.986Z,71.94
2019-05-11T09:29:30.350Z,71.58
2019-05-11T09:31:58.370Z,72.05
2019-05-11T09:34:26.078Z,72.58
2019-05-11T09:36:53.509Z,72.00
2019-05-11T09:39:20.969Z,71.64
2019-05-11T09:41:48.923Z,69.43
2019-05-11T09:44:18.202Z,69.99
2019-05-11T09:46:47.775Z,71.41
2019-05-11T09:49:15.072Z,71.80
2019-05-11T09:51:43.064Z,70.06
2019-05-11T09:54:29.474Z,70.33
2019-05-11T09:56:57.833Z,70.52
2019-05-11T09:59:27.991Z,72.72
2019-05-11T10:01:55.245Z,71.74
2019-05-11T10:04:22.592Z,72.38
2019-05-11T10:06:49.951Z,71.40
2019-05-11T10:09:18.614Z,70.83
2019-05-11T10:11:48.004Z,72.31
2019-05-11T10:14:15.481Z,71.89
2019-05-11T10:16:43.834Z,74.01
2019-05-11T10:19:11.879Z,73.48
2019-05-11T10:21:39.288Z,73.36
2019-05-11T10:24:08.709Z,72.62
2019-05-11T10:26:38.451Z,73.21
2019-05-11T10:29:07.929Z,71.53
2019-05-11T10:35:25.275Z,70.38
2019-05-11T10:37:52.713Z,70.75
2019-05-11T10:40:19.976Z,71.42
2019-05-11T10:42:48.364Z,70.09
2019-05-11T10:45:17.983Z,70.77
2019-05-11T10:47:45.306Z,67.89
2019-05-11T10:50:13.065Z,67.91
2019-05-11T10:52:40.454Z,70.32
2019-05-11T10:55:08.874Z,69.31
2019-05-11T10:57:38.573Z,66.52
2019-05-11T11:00:08.434Z,66.49
2019-05-11T11:02:38.376Z,65.52
2019-05-11T11:05:08.053Z,65.18
2019-05-11T11:07:38.134Z,65.89
2019-05-11T11:10:05.109Z,64.78
2019-05-11T11:12:32.406Z,64.16
2019-05-11T11:15:00.701Z,65.31
2019-05-11T11:17:28.763Z,64.85
2019-05-11T11:19:58.016Z,66.13
2019-05-11T11:22:39.052Z,66.25
2019-05-11T11:24:54.632Z,65.96
2019-05-11T11:27:21.927Z,65.59
2019-05-11T11:29:49.215Z,66.58
2019-05-11T11:32:18.409Z,66.29
2019-05-11T11:34:45.976Z,65.35
2019-05-11T11:37:13.335Z,65.96
2019-05-11T11:39:40.835Z,66.91
2019-05-11T11:42:08.487Z,67.55
2019-05-11T11:44:37.962Z,69.35
2019-05-11T11:47:05.269Z,68.10
2019-05-11T11:49:33.682Z,66.85
2019-05-11T11:52:01.083Z,67.26
2019-05-11T11:54:28.852Z,66.38
2019-05-11T11:56:58.740Z,65.93
2019-05-11T11:59:25.451Z,66.08
2019-05-11T12:01:52.834Z,66.20
2019-05-11T12:04:20.161Z,66.82
2019-05-11T12:06:49.098Z,65.25
2019-05-11T12:09:18.210Z,65.01
2019-05-11T12:11:45.623Z,64.84
2019-05-11T12:14:13.878Z,64.77
2019-05-11T12:16:41.184Z,66.26
2019-05-11T12:19:08.938Z,66.00
2019-05-11T12:21:37.926Z,63.87
2019-05-11T12:24:07.884Z,65.21
2019-05-11T12:26:34.616Z,65.05
2019-05-11T12:29:01.899Z,65.32
2019-05-11T12:31:32.525Z,63.14
2019-05-11T12:33:58.664Z,63.37
2019-05-11T12:36:27.949Z,64.66
2019-05-11T12:38:55.218Z,62.86
2019-05-11T12:41:22.582Z,61.08
2019-05-11T12:43:49.911Z,61.11
2019-05-11T12:46:18.920Z,60.72
2019-05-11T12:48:48.471Z,61.56
2019-05-11T12:51:15.571Z,62.02
2019-05-11T12:53:42.934Z,61.71
2019-05-11T12:56:10.229Z,63.21
2019-05-11T12:58:39.602Z,63.00
2019-05-11T13:01:09.273Z,63.26
2019-05-11T13:03:38.558Z,63.33
2019-05-11T13:06:08.138Z,63.30
2019-05-11T13:08:41.476Z,62.43
2019-05-11T13:11:09.037Z,64.38
2019-05-11T13:13:37.833Z,63.83
2019-05-11T13:16:05.372Z,63.74
2019-05-11T13:18:32.751Z,61.91
2019-05-11T13:21:00.083Z,63.34
2019-05-11T13:23:27.919Z,62.23
2019-05-11T13:25:55.396Z,62.55
2019-05-11T13:28:22.835Z,62.24
2019-05-11T13:30:50.087Z,64.26
2019-05-11T13:33:19.081Z,65.02
2019-05-11T13:35:48.223Z,63.50
2019-05-11T13:38:17.767Z,62.62
2019-05-11T13:40:44.850Z,65.22
2019-05-11T13:43:12.156Z,64.83
2019-05-11T13:45:40.478Z,65.24
2019-05-11T13:48:08.449Z,64.67
2019-05-11T13:50:36.043Z,64.85
2019-05-11T13:53:03.422Z,64.87
2019-05-11T13:55:31.271Z,64.07
2019-05-11T13:57:59.972Z,61.77
2019-05-11T14:00:28.932Z,60.87
2019-05-11T14:02:58.638Z,61.39
2019-05-11T14:05:28.541Z,63.20
2019-05-11T14:07:55.916Z,60.21
2019-05-11T14:10:23.204Z,60.72
2019-05-11T14:12:50.555Z,61.29
2019-05-11T14:15:18.873Z,59.15
2019-05-11T14:17:48.154Z,59.01
2019-05-11T14:20:18.943Z,56.77
2019-05-11T14:22:47.918Z,54.28
2019-05-11T14:25:15.471Z,53.23
2019-05-11T14:27:42.899Z,53.00
2019-05-11T14:30:10.533Z,45.47
2019-05-11T14:32:38.847Z,43.85
2019-05-11T14:35:11.337Z,42.74
2019-05-11T14:37:37.808Z,43.92
2019-05-11T14:40:05.047Z,45.59
2019-05-11T14:42:32.564Z,45.42
2019-05-11T14:44:59.875Z,49.84
2019-05-11T14:47:28.388Z,51.93
2019-05-11T14:49:57.810Z,52.64
2019-05-11T14:52:25.112Z,53.77
2019-05-11T14:54:52.349Z,51.00
2019-05-11T14:57:19.648Z,52.00
2019-05-11T14:59:48.301Z,51.77
2019-05-11T15:02:33.970Z,53.42
2019-05-11T15:05:01.691Z,55.16
2019-05-11T15:07:29.117Z,54.67
2019-05-11T15:09:58.553Z,55.59
2019-05-11T15:12:25.609Z,57.44
2019-05-11T15:14:52.962Z,58.52
2019-05-11T15:17:20.273Z,57.92
2019-05-11T15:19:48.818Z,58.87
2019-05-11T15:22:18.163Z,58.99
2019-05-11T15:24:45.525Z,60.87
2019-05-11T15:27:12.876Z,60.06
2019-05-11T15:29:40.125Z,59.40
2019-05-11T15:32:08.456Z,58.50
2019-05-11T15:34:37.868Z,56.25
2019-05-11T15:37:05.296Z,53.91
2019-05-11T15:39:32.738Z,52.33
2019-05-11T15:42:09.200Z,51.71
2019-05-11T15:44:29.389Z,52.53
2019-05-11T15:46:58.292Z,50.81
2019-05-11T15:49:25.652Z,47.99
2019-05-11T15:51:55.035Z,49.38
2019-05-11T15:54:22.299Z,48.33
2019-05-11T15:56:49.567Z,46.61
2019-05-11T15:59:16.902Z,46.28
2019-05-11T16:01:44.441Z,47.59
2019-05-11T16:04:12.029Z,49.80
2019-05-11T16:06:39.361Z,51.80
2019-05-11T16:09:08.363Z,53.73
2019-05-11T16:11:38.840Z,56.63
2019-05-11T16:14:08.681Z,56.67
2019-05-11T16:16:35.610Z,57.54
2019-05-11T16:19:11.706Z,57.90
2019-05-11T16:21:32.145Z,56.35
2019-05-11T16:23:59.542Z,56.96
2019-05-11T16:26:28.109Z,56.24
2019-05-11T16:28:55.527Z,56.13
2019-05-11T16:31:23.279Z,54.70
2019-05-11T16:33:50.755Z,55.19
2019-05-11T16:36:18.375Z,53.17
2019-05-11T16:38:45.709Z,50.95
2019-05-11T16:41:13.140Z,51.55
2019-05-11T16:43:40.644Z,51.83
2019-05-11T16:46:08.715Z,49.46
2019-05-11T16:48:38.215Z,46.23
2019-05-11T16:51:05.604Z,44.11
2019-05-11T16:53:35.254Z,47.69
2019-05-11T16:56:02.413Z,46.42
2019-05-11T16:58:30.041Z,50.63
2019-05-11T17:00:58.264Z,50.62
2019-05-11T17:03:27.938Z,51.58
2019-05-11T17:05:55.444Z,50.83
2019-05-11T17:08:23.050Z,52.51
2019-05-11T17:10:59.130Z,52.61
2019-05-11T17:13:26.390Z,51.87
2019-05-11T17:15:54.733Z,51.46
2019-05-11T17:18:22.038Z,50.09
2019-05-11T17:20:49.391Z,49.96
2019-05-11T17:23:18.296Z,51.18
2019-05-11T17:25:45.786Z,51.75
2019-05-11T17:28:13.078Z,52.33
2019-05-11T17:30:40.432Z,52.54
2019-05-11T17:33:08.725Z,51.93
2019-05-11T17:35:37.360Z,50.01
2019-05-11T17:38:04.590Z,49.80
2019-05-11T17:40:31.886Z,53.01
2019-05-11T17:42:59.265Z,51.48
2019-05-11T17:45:26.630Z,53.60
2019-05-11T17:47:54.027Z,50.97
2019-05-11T17:50:21.363Z,53.21
2019-05-11T17:52:48.657Z,54.02
2019-05-11T17:55:18.128Z,54.55
2019-05-11T17:57:45.187Z,54.16
2019-05-11T18:00:12.532Z,53.71
2019-05-11T18:02:39.917Z,55.71
2019-05-11T18:05:09.006Z,56.00
2019-05-11T18:07:38.611Z,54.57
2019-05-11T18:10:07.992Z,54.97
2019-05-11T18:12:36.069Z,55.99
2019-05-11T18:15:03.566Z,56.97
2019-05-11T18:17:30.948Z,58.46
2019-05-11T18:20:12.617Z,59.22
2019-05-11T18:22:28.468Z,58.85
2019-05-11T18:24:58.031Z,59.24
2019-05-11T18:27:25.161Z,60.12
2019-05-11T18:29:58.827Z,60.95
2019-05-11T18:32:28.383Z,61.19
2019-05-11T18:34:58.919Z,62.08
2019-05-11T18:37:28.189Z,62.78
2019-05-11T18:39:58.547Z,63.02
2019-05-11T18:42:28.306Z,64.08
2019-05-11T18:45:00.116Z,64.21
2019-05-11T18:47:29.959Z,65.04
2019-05-11T18:50:00.508Z,65.66
2019-05-11T18:52:29.613Z,66.01
2019-05-11T18:54:57.851Z,67.02
2019-05-11T18:57:27.771Z,66.92
2019-05-11T18:59:55.970Z,67.81
2019-05-11T19:02:27.951Z,67.50
2019-05-11T19:04:58.214Z,67.92
2019-05-11T19:07:28.670Z,68.55
2019-05-11T19:09:58.502Z,68.70
2019-05-11T19:12:28.147Z,69.18
2019-05-11T19:15:00.283Z,69.55
2019-05-11T19:17:29.353Z,69.61
2019-05-11T19:20:00.997Z,69.55
2019-05-11T19:22:30.334Z,69.63
2019-05-11T19:24:59.406Z,70.25
2019-05-11T19:27:28.886Z,69.99
2019-05-11T19:29:57.865Z,70.47
2019-05-11T19:32:28.737Z,70.94
2019-05-11T19:34:58.158Z,70.96
2019-05-11T19:37:27.874Z,71.25
2019-05-11T19:39:57.972Z,71.45
2019-05-11T19:42:28.520Z,71.97
2019-05-11T19:44:56.357Z,72.01
2019-05-11T19:47:23.629Z,72.26
2019-05-11T19:49:52.488Z,72.06
2019-05-11T19:52:22.379Z,72.04
2019-05-11T19:54:51.116Z,71.92
2019-05-11T19:57:20.703Z,71.98
2019-05-11T19:59:51.411Z,72.53
2019-05-11T20:02:20.800Z,72.44
2019-05-11T20:04:53.733Z,72.44
2019-05-11T20:07:23.188Z,72.44
2019-05-11T20:09:52.417Z,73.48
2019-05-11T20:12:21.548Z,73.05
2019-05-11T20:14:49.471Z,72.56
2019-05-11T20:17:18.208Z,71.97
2019-05-11T20:19:45.675Z,71.98
2019-05-11T20:22:12.990Z,72.36
2019-05-11T20:24:40.239Z,72.40
2019-05-11T20:27:08.055Z,73.23
2019-05-11T20:29:35.561Z,72.53
2019-05-11T20:32:02.829Z,72.89
2019-05-11T20:34:30.487Z,72.51
2019-05-11T20:36:58.720Z,72.81
2019-05-11T20:39:28.496Z,73.23
2019-05-11T20:41:55.499Z,72.89
2019-05-11T20:44:22.856Z,73.59
2019-05-11T20:46:50.334Z,74.12
2019-05-11T20:49:17.704Z,73.90
2019-05-11T20:51:45.079Z,73.70
2019-05-11T20:54:12.521Z,74.44
2019-05-11T20:56:39.907Z,75.17
2019-05-11T20:59:07.841Z,74.94
2019-05-11T21:01:35.360Z,75.48
2019-05-11T21:04:02.819Z,76.01
2019-05-11T21:08:11.578Z,75.59
2019-05-11T21:10:38.877Z,75.32
2019-05-11T21:13:08.419Z,76.59
2019-05-11T21:15:35.579Z,76.63
2019-05-11T21:18:02.872Z,77.33
2019-05-11T21:20:30.233Z,77.49
2019-05-11T21:22:57.971Z,78.16
2019-05-11T21:25:25.401Z,77.91
2019-05-11T21:27:53.657Z,78.10
2019-05-11T21:30:21.013Z,78.02
2019-05-11T21:32:48.380Z,78.05
2019-05-11T21:35:15.649Z,78.46
2019-05-11T21:37:42.965Z,77.76
2019-05-11T21:40:10.490Z,78.41
2019-05-11T21:42:39.012Z,78.28
2019-05-11T21:45:09.047Z,80.13
2019-05-11T21:47:38.674Z,80.94
2019-05-11T21:50:05.410Z,81.81
2019-05-11T21:52:32.696Z,81.25
2019-05-11T21:54:59.973Z,81.91
2019-05-11T21:57:27.848Z,82.52
2019-05-11T21:59:57.408Z,82.27
2019-05-11T22:02:24.523Z,81.67
2019-05-11T22:04:51.873Z,81.88
2019-05-11T22:07:19.200Z,81.34
2019-05-11T22:09:46.501Z,81.20
2019-05-11T22:12:13.840Z,81.57
2019-05-11T22:14:41.179Z,80.79
2019-05-11T22:17:08.491Z,81.60
2019-05-11T22:19:35.766Z,81.53
2019-05-11T22:22:03.050Z,81.90
2019-05-11T22:24:30.314Z,82.12
2019-05-11T22:27:00.226Z,81.74
2019-05-11T22:29:28.615Z,81.72
2019-05-11T22:31:57.701Z,81.48
2019-05-11T22:34:25.287Z,81.10
2019-05-11T22:36:52.732Z,81.32
2019-05-11T22:39:20.833Z,81.19
2019-05-11T22:41:48.426Z,82.19
2019-05-11T22:44:15.779Z,84.16
2019-05-11T22:46:43.831Z,83.42
2019-05-11T22:49:11.260Z,83.15
2019-05-11T22:51:38.773Z,83.91
2019-05-11T22:54:08.039Z,84.90
2019-05-11T22:56:37.865Z,85.40
2019-05-11T22:59:08.110Z,85.69
2019-05-11T23:01:37.909Z,85.24
2019-05-11T23:04:06.055Z,85.35
2019-05-11T23:06:33.614Z,85.00
2019-05-11T23:09:01.043Z,85.33
2019-05-11T23:11:28.666Z,85.37
2019-05-11T23:13:56.038Z,85.46
2019-05-11T23:16:23.417Z,84.93
2019-05-11T23:18:50.821Z,85.57
2019-05-11T23:21:19.320Z,85.81
2019-05-11T23:23:47.834Z,86.40
2019-05-11T23:26:17.656Z,86.37
2019-05-11T23:28:48.703Z,85.76
2019-05-11T23:31:17.535Z,86.76
2019-05-11T23:33:45.314Z,87.14
2019-05-11T23:36:12.709Z,86.75
2019-05-11T23:38:40.178Z,86.66
2019-05-11T23:41:08.290Z,87.05
2019-05-11T23:43:37.901Z,86.93
2019-05-11T23:46:08.275Z,86.17
2019-05-11T23:48:38.364Z,85.80
2019-05-11T23:51:05.288Z,85.89
2019-05-11T23:53:32.650Z,85.39
2019-05-11T23:55:59.964Z,85.38
2019-05-11T23:58:28.137Z,84.94
